Current Weather

Mahshahr

Mahshahr, Iran (OIAM)

Report from: Saturday, July 13, 2024 12:00 AM UTC
Current time: Saturday, July 13, 2024 12:57 AM UTC

Nearby weather – Weather history – Daily summaries
Weather forecast

Temperature34.0°C (93.2°F)
Heat index37.4°C (99.2°F)
Dew point21.0°C (69.8°F)
Winds Calm
Clouds Sky clear
Altimeter29.26 in.Hg (991 mB)
Relative humidity47 %
Density altitude3,246 ft. (989 m)
Remarks Ceiling and visibility OK
Flight conditions Visual Meteorological Conditions
Raw dataOIAM 130000Z 00000KT CAVOK 34/21 Q0991
An unhandled exception has occurred. See browser dev tools for details. Reload 🗙